sensor_id;sensor_type;location;lat;lon;timestamp;P1;durP1;ratioP1;P2;durP2;ratioP2
9761;SDS011;4920;49.594;11.022;2024-03-02T00:02:04;46.13;;;27.87;;
9761;SDS011;4920;49.594;11.022;2024-03-02T00:04:34;46.97;;;27.87;;
9761;SDS011;4920;49.594;11.022;2024-03-02T00:07:04;46.97;;;27.97;;
9761;SDS011;4920;49.594;11.022;2024-03-02T00:09:34;51.27;;;28.73;;
9761;SDS011;4920;49.594;11.022;2024-03-02T00:12:05;48.93;;;27.07;;
9761;SDS011;4920;49.594;11.022;2024-03-02T00:14:35;45.43;;;27.30;;
9761;SDS011;4920;49.594;11.022;2024-03-02T00:17:03;45.87;;;27.13;;
9761;SDS011;4920;49.594;11.022;2024-03-02T00:19:32;45.67;;;26.73;;
9761;SDS011;4920;49.594;11.022;2024-03-02T00:22:01;48.03;;;27.10;;
9761;SDS011;4920;49.594;11.022;2024-03-02T00:24:32;48.00;;;26.53;;
9761;SDS011;4920;49.594;11.022;2024-03-02T00:27:03;43.73;;;26.70;;
9761;SDS011;4920;49.594;11.022;2024-03-02T00:29:38;46.37;;;26.70;;
9761;SDS011;4920;49.594;11.022;2024-03-02T00:32:10;42.13;;;26.43;;
9761;SDS011;4920;49.594;11.022;2024-03-02T00:34:41;44.33;;;26.80;;
9761;SDS011;4920;49.594;11.022;2024-03-02T00:37:10;43.80;;;26.37;;
9761;SDS011;4920;49.594;11.022;2024-03-02T00:39:40;46.53;;;27.23;;
9761;SDS011;4920;49.594;11.022;2024-03-02T00:42:10;46.90;;;27.50;;
9761;SDS011;4920;49.594;11.022;2024-03-02T00:44:40;46.47;;;26.83;;
9761;SDS011;4920;49.594;11.022;2024-03-02T00:47:09;43.17;;;26.80;;
9761;SDS011;4920;49.594;11.022;2024-03-02T00:49:38;49.03;;;27.53;;
9761;SDS011;4920;49.594;11.022;2024-03-02T00:52:07;44.57;;;27.20;;
9761;SDS011;4920;49.594;11.022;2024-03-02T00:54:37;46.30;;;27.50;;
9761;SDS011;4920;49.594;11.022;2024-03-02T00:57:06;45.80;;;27.57;;
9761;SDS011;4920;49.594;11.022;2024-03-02T00:59:39;48.90;;;27.97;;
9761;SDS011;4920;49.594;11.022;2024-03-02T01:02:08;47.60;;;28.13;;
9761;SDS011;4920;49.594;11.022;2024-03-02T01:04:37;49.80;;;27.87;;
9761;SDS011;4920;49.594;11.022;2024-03-02T01:07:06;46.23;;;28.67;;
9761;SDS011;4920;49.594;11.022;2024-03-02T01:09:35;46.83;;;27.93;;
9761;SDS011;4920;49.594;11.022;2024-03-02T01:12:04;45.87;;;27.33;;
9761;SDS011;4920;49.594;11.022;2024-03-02T01:14:34;44.23;;;26.87;;
9761;SDS011;4920;49.594;11.022;2024-03-02T01:17:03;47.17;;;26.87;;
9761;SDS011;4920;49.594;11.022;2024-03-02T01:19:32;50.77;;;28.07;;
9761;SDS011;4920;49.594;11.022;2024-03-02T01:22:01;46.47;;;27.93;;
9761;SDS011;4920;49.594;11.022;2024-03-02T01:24:30;49.73;;;27.90;;
9761;SDS011;4920;49.594;11.022;2024-03-02T01:26:59;50.73;;;29.13;;
9761;SDS011;4920;49.594;11.022;2024-03-02T01:29:28;48.30;;;28.33;;
9761;SDS011;4920;49.594;11.022;2024-03-02T01:31:58;48.97;;;28.87;;
9761;SDS011;4920;49.594;11.022;2024-03-02T01:34:27;44.90;;;26.67;;
9761;SDS011;4920;49.594;11.022;2024-03-02T01:36:56;46.40;;;27.97;;
9761;SDS011;4920;49.594;11.022;2024-03-02T01:39:25;46.27;;;28.37;;
9761;SDS011;4920;49.594;11.022;2024-03-02T01:41:54;49.63;;;28.93;;
9761;SDS011;4920;49.594;11.022;2024-03-02T01:44:23;45.77;;;27.70;;
9761;SDS011;4920;49.594;11.022;2024-03-02T01:46:52;44.40;;;27.97;;
9761;SDS011;4920;49.594;11.022;2024-03-02T01:49:22;47.60;;;27.83;;
9761;SDS011;4920;49.594;11.022;2024-03-02T01:51:51;47.60;;;28.20;;
9761;SDS011;4920;49.594;11.022;2024-03-02T01:54:20;48.77;;;28.47;;
9761;SDS011;4920;49.594;11.022;2024-03-02T01:56:50;48.70;;;28.67;;
9761;SDS011;4920;49.594;11.022;2024-03-02T01:59:19;46.37;;;27.57;;
9761;SDS011;4920;49.594;11.022;2024-03-02T02:01:49;49.90;;;28.83;;
9761;SDS011;4920;49.594;11.022;2024-03-02T02:04:18;48.40;;;29.23;;
9761;SDS011;4920;49.594;11.022;2024-03-02T02:06:49;50.53;;;29.17;;
9761;SDS011;4920;49.594;11.022;2024-03-02T02:09:18;51.37;;;29.73;;
9761;SDS011;4920;49.594;11.022;2024-03-02T02:11:48;53.63;;;29.93;;
9761;SDS011;4920;49.594;11.022;2024-03-02T02:14:18;48.80;;;29.37;;
9761;SDS011;4920;49.594;11.022;2024-03-02T02:16:47;46.47;;;29.07;;
9761;SDS011;4920;49.594;11.022;2024-03-02T02:19:16;49.03;;;29.10;;
9761;SDS011;4920;49.594;11.022;2024-03-02T02:21:46;49.13;;;28.90;;
9761;SDS011;4920;49.594;11.022;2024-03-02T02:24:16;50.33;;;30.10;;
9761;SDS011;4920;49.594;11.022;2024-03-02T02:26:44;53.93;;;30.67;;
9761;SDS011;4920;49.594;11.022;2024-03-02T02:29:13;54.33;;;29.60;;
9761;SDS011;4920;49.594;11.022;2024-03-02T02:31:42;52.90;;;30.37;;
9761;SDS011;4920;49.594;11.022;2024-03-02T02:34:11;50.73;;;30.10;;
9761;SDS011;4920;49.594;11.022;2024-03-02T02:36:41;49.90;;;31.00;;
9761;SDS011;4920;49.594;11.022;2024-03-02T02:39:13;52.77;;;31.07;;
9761;SDS011;4920;49.594;11.022;2024-03-02T02:41:43;50.10;;;29.17;;
9761;SDS011;4920;49.594;11.022;2024-03-02T02:44:11;50.20;;;29.10;;
9761;SDS011;4920;49.594;11.022;2024-03-02T02:46:41;47.13;;;28.47;;
9761;SDS011;4920;49.594;11.022;2024-03-02T02:49:09;50.60;;;29.50;;
9761;SDS011;4920;49.594;11.022;2024-03-02T02:51:38;47.93;;;28.67;;
9761;SDS011;4920;49.594;11.022;2024-03-02T02:54:07;48.33;;;28.20;;
9761;SDS011;4920;49.594;11.022;2024-03-02T02:56:38;45.80;;;28.00;;
9761;SDS011;4920;49.594;11.022;2024-03-02T02:59:06;46.43;;;28.03;;
9761;SDS011;4920;49.594;11.022;2024-03-02T03:01:35;47.87;;;28.13;;
9761;SDS011;4920;49.594;11.022;2024-03-02T03:04:04;43.13;;;26.10;;
9761;SDS011;4920;49.594;11.022;2024-03-02T03:06:33;45.10;;;27.50;;
9761;SDS011;4920;49.594;11.022;2024-03-02T03:09:02;46.93;;;28.30;;
9761;SDS011;4920;49.594;11.022;2024-03-02T03:11:31;43.17;;;26.17;;
9761;SDS011;4920;49.594;11.022;2024-03-02T03:14:02;45.97;;;27.03;;
9761;SDS011;4920;49.594;11.022;2024-03-02T03:16:31;44.33;;;26.43;;
9761;SDS011;4920;49.594;11.022;2024-03-02T03:19:00;45.97;;;26.60;;
9761;SDS011;4920;49.594;11.022;2024-03-02T03:21:30;46.13;;;27.10;;
9761;SDS011;4920;49.594;11.022;2024-03-02T03:23:58;48.33;;;27.67;;
9761;SDS011;4920;49.594;11.022;2024-03-02T03:26:27;44.10;;;26.53;;
9761;SDS011;4920;49.594;11.022;2024-03-02T03:28:56;45.53;;;26.20;;
9761;SDS011;4920;49.594;11.022;2024-03-02T03:31:27;41.17;;;25.83;;
9761;SDS011;4920;49.594;11.022;2024-03-02T03:33:56;42.33;;;25.70;;
9761;SDS011;4920;49.594;11.022;2024-03-02T03:36:25;44.27;;;26.70;;
9761;SDS011;4920;49.594;11.022;2024-03-02T03:38:54;45.77;;;26.63;;
9761;SDS011;4920;49.594;11.022;2024-03-02T03:41:24;43.47;;;26.20;;
9761;SDS011;4920;49.594;11.022;2024-03-02T03:43:53;44.57;;;27.07;;
9761;SDS011;4920;49.594;11.022;2024-03-02T03:46:22;47.23;;;27.77;;
9761;SDS011;4920;49.594;11.022;2024-03-02T03:48:52;44.80;;;26.73;;
9761;SDS011;4920;49.594;11.022;2024-03-02T03:51:22;46.70;;;27.50;;
9761;SDS011;4920;49.594;11.022;2024-03-02T03:53:51;46.17;;;26.30;;
9761;SDS011;4920;49.594;11.022;2024-03-02T03:56:20;45.27;;;26.53;;
9761;SDS011;4920;49.594;11.022;2024-03-02T03:58:49;47.90;;;28.17;;
9761;SDS011;4920;49.594;11.022;2024-03-02T04:01:18;45.53;;;26.40;;
9761;SDS011;4920;49.594;11.022;2024-03-02T04:03:49;45.37;;;27.10;;
9761;SDS011;4920;49.594;11.022;2024-03-02T04:06:19;50.47;;;27.83;;
9761;SDS011;4920;49.594;11.022;2024-03-02T04:08:49;43.10;;;25.47;;
9761;SDS011;4920;49.594;11.022;2024-03-02T04:11:17;47.43;;;27.03;;
9761;SDS011;4920;49.594;11.022;2024-03-02T04:13:46;47.27;;;27.67;;
9761;SDS011;4920;49.594;11.022;2024-03-02T04:16:15;43.43;;;26.43;;
9761;SDS011;4920;49.594;11.022;2024-03-02T04:18:44;45.83;;;26.47;;
9761;SDS011;4920;49.594;11.022;2024-03-02T04:21:13;47.73;;;27.27;;
9761;SDS011;4920;49.594;11.022;2024-03-02T04:23:44;46.80;;;27.17;;
9761;SDS011;4920;49.594;11.022;2024-03-02T04:26:13;51.13;;;28.43;;
9761;SDS011;4920;49.594;11.022;2024-03-02T04:28:42;48.83;;;27.47;;
9761;SDS011;4920;49.594;11.022;2024-03-02T04:31:10;50.13;;;27.70;;
9761;SDS011;4920;49.594;11.022;2024-03-02T04:33:39;49.10;;;27.60;;
9761;SDS011;4920;49.594;11.022;2024-03-02T04:36:08;50.80;;;27.43;;
9761;SDS011;4920;49.594;11.022;2024-03-02T04:38:37;48.50;;;27.00;;
9761;SDS011;4920;49.594;11.022;2024-03-02T04:41:08;49.63;;;27.73;;
9761;SDS011;4920;49.594;11.022;2024-03-02T04:43:37;51.23;;;26.93;;
9761;SDS011;4920;49.594;11.022;2024-03-02T04:46:06;48.87;;;26.17;;
9761;SDS011;4920;49.594;11.022;2024-03-02T04:48:36;50.73;;;27.83;;
9761;SDS011;4920;49.594;11.022;2024-03-02T04:51:05;50.43;;;26.90;;
9761;SDS011;4920;49.594;11.022;2024-03-02T04:53:34;46.50;;;26.37;;
9761;SDS011;4920;49.594;11.022;2024-03-02T04:56:03;47.23;;;26.00;;
9761;SDS011;4920;49.594;11.022;2024-03-02T04:58:55;47.60;;;26.40;;
9761;SDS011;4920;49.594;11.022;2024-03-02T05:01:24;49.17;;;26.63;;
9761;SDS011;4920;49.594;11.022;2024-03-02T05:03:53;49.37;;;26.60;;
9761;SDS011;4920;49.594;11.022;2024-03-02T05:06:22;47.97;;;25.17;;
9761;SDS011;4920;49.594;11.022;2024-03-02T05:08:51;45.93;;;25.37;;
9761;SDS011;4920;49.594;11.022;2024-03-02T05:11:19;47.10;;;25.40;;
9761;SDS011;4920;49.594;11.022;2024-03-02T05:14:00;43.20;;;23.47;;
9761;SDS011;4920;49.594;11.022;2024-03-02T05:16:28;42.93;;;24.13;;
9761;SDS011;4920;49.594;11.022;2024-03-02T05:18:57;45.53;;;24.30;;
9761;SDS011;4920;49.594;11.022;2024-03-02T05:21:26;45.73;;;25.00;;
9761;SDS011;4920;49.594;11.022;2024-03-02T05:23:55;46.27;;;24.70;;
9761;SDS011;4920;49.594;11.022;2024-03-02T05:26:24;42.93;;;24.57;;
9761;SDS011;4920;49.594;11.022;2024-03-02T05:28:53;41.87;;;23.70;;
9761;SDS011;4920;49.594;11.022;2024-03-02T05:31:24;42.43;;;24.03;;
9761;SDS011;4920;49.594;11.022;2024-03-02T05:33:53;43.97;;;24.23;;
9761;SDS011;4920;49.594;11.022;2024-03-02T05:36:24;42.30;;;23.97;;
9761;SDS011;4920;49.594;11.022;2024-03-02T05:38:53;42.37;;;23.70;;
9761;SDS011;4920;49.594;11.022;2024-03-02T05:41:22;41.57;;;22.97;;
9761;SDS011;4920;49.594;11.022;2024-03-02T05:43:50;42.83;;;23.90;;
9761;SDS011;4920;49.594;11.022;2024-03-02T05:46:19;41.67;;;23.97;;
9761;SDS011;4920;49.594;11.022;2024-03-02T05:48:50;47.20;;;24.97;;
9761;SDS011;4920;49.594;11.022;2024-03-02T05:51:19;44.60;;;24.27;;
9761;SDS011;4920;49.594;11.022;2024-03-02T05:53:48;44.40;;;23.93;;
9761;SDS011;4920;49.594;11.022;2024-03-02T05:56:17;43.67;;;24.17;;
9761;SDS011;4920;49.594;11.022;2024-03-02T05:58:46;46.80;;;23.97;;
9761;SDS011;4920;49.594;11.022;2024-03-02T06:01:24;44.57;;;24.30;;
9761;SDS011;4920;49.594;11.022;2024-03-02T06:03:57;43.10;;;24.37;;
9761;SDS011;4920;49.594;11.022;2024-03-02T06:06:26;45.70;;;24.13;;
9761;SDS011;4920;49.594;11.022;2024-03-02T06:08:55;44.63;;;24.30;;
9761;SDS011;4920;49.594;11.022;2024-03-02T06:11:24;44.97;;;24.90;;
9761;SDS011;4920;49.594;11.022;2024-03-02T06:13:53;43.90;;;23.93;;
9761;SDS011;4920;49.594;11.022;2024-03-02T06:16:22;47.30;;;24.53;;
9761;SDS011;4920;49.594;11.022;2024-03-02T06:18:51;44.60;;;23.67;;
9761;SDS011;4920;49.594;11.022;2024-03-02T06:21:22;48.10;;;24.33;;
9761;SDS011;4920;49.594;11.022;2024-03-02T06:23:51;46.80;;;24.83;;
9761;SDS011;4920;49.594;11.022;2024-03-02T06:26:20;49.20;;;25.67;;
9761;SDS011;4920;49.594;11.022;2024-03-02T06:28:52;46.40;;;24.50;;
9761;SDS011;4920;49.594;11.022;2024-03-02T06:31:20;49.10;;;24.50;;
9761;SDS011;4920;49.594;11.022;2024-03-02T06:33:49;46.00;;;25.03;;
9761;SDS011;4920;49.594;11.022;2024-03-02T06:36:18;45.10;;;23.93;;
9761;SDS011;4920;49.594;11.022;2024-03-02T06:38:49;50.60;;;24.00;;
9761;SDS011;4920;49.594;11.022;2024-03-02T06:41:18;44.37;;;23.20;;
9761;SDS011;4920;49.594;11.022;2024-03-02T06:43:47;49.10;;;24.57;;
9761;SDS011;4920;49.594;11.022;2024-03-02T06:46:15;43.80;;;23.40;;
9761;SDS011;4920;49.594;11.022;2024-03-02T06:48:44;41.87;;;23.23;;
9761;SDS011;4920;49.594;11.022;2024-03-02T06:51:13;40.70;;;23.17;;
9761;SDS011;4920;49.594;11.022;2024-03-02T06:53:42;39.27;;;23.07;;
9761;SDS011;4920;49.594;11.022;2024-03-02T06:56:13;40.60;;;23.40;;
9761;SDS011;4920;49.594;11.022;2024-03-02T06:58:41;40.17;;;21.33;;
9761;SDS011;4920;49.594;11.022;2024-03-02T07:01:11;37.13;;;21.90;;
9761;SDS011;4920;49.594;11.022;2024-03-02T07:03:40;37.03;;;21.60;;
9761;SDS011;4920;49.594;11.022;2024-03-02T07:06:09;38.63;;;21.80;;
9761;SDS011;4920;49.594;11.022;2024-03-02T07:08:38;35.33;;;21.43;;
9761;SDS011;4920;49.594;11.022;2024-03-02T07:11:07;34.10;;;20.40;;
9761;SDS011;4920;49.594;11.022;2024-03-02T07:13:38;33.43;;;21.00;;
9761;SDS011;4920;49.594;11.022;2024-03-02T07:16:07;32.63;;;19.30;;
9761;SDS011;4920;49.594;11.022;2024-03-02T07:18:49;30.07;;;18.13;;
9761;SDS011;4920;49.594;11.022;2024-03-02T07:21:19;31.30;;;18.70;;
9761;SDS011;4920;49.594;11.022;2024-03-02T07:23:49;28.27;;;17.93;;
9761;SDS011;4920;49.594;11.022;2024-03-02T07:26:18;28.17;;;18.23;;
9761;SDS011;4920;49.594;11.022;2024-03-02T07:28:52;27.37;;;17.53;;
9761;SDS011;4920;49.594;11.022;2024-03-02T07:31:21;25.23;;;17.23;;
9761;SDS011;4920;49.594;11.022;2024-03-02T07:33:50;25.90;;;17.50;;
9761;SDS011;4920;49.594;11.022;2024-03-02T07:36:18;24.03;;;16.87;;
9761;SDS011;4920;49.594;11.022;2024-03-02T07:38:47;24.00;;;15.70;;
9761;SDS011;4920;49.594;11.022;2024-03-02T07:41:17;26.03;;;16.60;;
9761;SDS011;4920;49.594;11.022;2024-03-02T07:43:46;25.13;;;16.77;;
9761;SDS011;4920;49.594;11.022;2024-03-02T07:46:17;22.73;;;15.80;;
9761;SDS011;4920;49.594;11.022;2024-03-02T07:48:46;24.63;;;16.70;;
9761;SDS011;4920;49.594;11.022;2024-03-02T07:51:15;23.90;;;16.67;;
9761;SDS011;4920;49.594;11.022;2024-03-02T07:53:44;24.13;;;16.13;;
9761;SDS011;4920;49.594;11.022;2024-03-02T07:56:13;25.20;;;16.67;;
9761;SDS011;4920;49.594;11.022;2024-03-02T07:58:49;22.20;;;16.10;;
9761;SDS011;4920;49.594;11.022;2024-03-02T08:01:19;22.40;;;15.97;;
9761;SDS011;4920;49.594;11.022;2024-03-02T08:03:48;22.03;;;15.33;;
9761;SDS011;4920;49.594;11.022;2024-03-02T08:06:17;20.53;;;14.37;;
9761;SDS011;4920;49.594;11.022;2024-03-02T08:08:48;23.50;;;14.90;;
9761;SDS011;4920;49.594;11.022;2024-03-02T08:11:17;22.03;;;15.17;;
9761;SDS011;4920;49.594;11.022;2024-03-02T08:13:46;21.50;;;15.47;;
9761;SDS011;4920;49.594;11.022;2024-03-02T08:16:15;22.00;;;15.50;;
9761;SDS011;4920;49.594;11.022;2024-03-02T08:18:48;24.33;;;16.00;;
9761;SDS011;4920;49.594;11.022;2024-03-02T08:21:17;23.47;;;15.83;;
9761;SDS011;4920;49.594;11.022;2024-03-02T08:23:47;22.23;;;14.17;;
9761;SDS011;4920;49.594;11.022;2024-03-02T08:26:16;25.83;;;15.43;;
9761;SDS011;4920;49.594;11.022;2024-03-02T08:28:45;21.40;;;14.67;;
9761;SDS011;4920;49.594;11.022;2024-03-02T08:31:14;22.60;;;14.70;;
9761;SDS011;4920;49.594;11.022;2024-03-02T08:33:43;22.77;;;15.17;;
9761;SDS011;4920;49.594;11.022;2024-03-02T08:36:13;20.87;;;14.97;;
9761;SDS011;4920;49.594;11.022;2024-03-02T08:38:42;23.73;;;15.33;;
9761;SDS011;4920;49.594;11.022;2024-03-02T08:41:12;21.73;;;14.90;;
9761;SDS011;4920;49.594;11.022;2024-03-02T08:43:43;22.00;;;14.77;;
9761;SDS011;4920;49.594;11.022;2024-03-02T08:46:12;23.67;;;15.23;;
9761;SDS011;4920;49.594;11.022;2024-03-02T08:48:41;21.13;;;14.13;;
9761;SDS011;4920;49.594;11.022;2024-03-02T08:51:10;19.83;;;14.20;;
9761;SDS011;4920;49.594;11.022;2024-03-02T08:53:40;19.93;;;13.73;;
9761;SDS011;4920;49.594;11.022;2024-03-02T08:56:10;18.37;;;13.70;;
9761;SDS011;4920;49.594;11.022;2024-03-02T08:58:39;19.50;;;13.40;;
9761;SDS011;4920;49.594;11.022;2024-03-02T09:01:08;20.63;;;13.60;;
9761;SDS011;4920;49.594;11.022;2024-03-02T09:03:37;18.33;;;13.27;;
9761;SDS011;4920;49.594;11.022;2024-03-02T09:06:06;19.30;;;13.43;;
9761;SDS011;4920;49.594;11.022;2024-03-02T09:08:35;17.83;;;13.10;;
9761;SDS011;4920;49.594;11.022;2024-03-02T09:11:07;17.83;;;12.63;;
9761;SDS011;4920;49.594;11.022;2024-03-02T09:13:36;16.70;;;12.03;;
9761;SDS011;4920;49.594;11.022;2024-03-02T09:16:06;15.23;;;11.10;;
9761;SDS011;4920;49.594;11.022;2024-03-02T09:18:38;16.48;;;11.88;;
9761;SDS011;4920;49.594;11.022;2024-03-02T09:21:07;15.33;;;10.57;;
9761;SDS011;4920;49.594;11.022;2024-03-02T09:23:36;14.80;;;10.85;;
9761;SDS011;4920;49.594;11.022;2024-03-02T09:26:08;14.98;;;11.23;;
9761;SDS011;4920;49.594;11.022;2024-03-02T09:28:37;15.20;;;10.27;;
9761;SDS011;4920;49.594;11.022;2024-03-02T09:31:06;14.60;;;10.52;;
9761;SDS011;4920;49.594;11.022;2024-03-02T09:33:35;12.95;;;9.95;;
9761;SDS011;4920;49.594;11.022;2024-03-02T09:36:06;16.60;;;9.50;;
9761;SDS011;4920;49.594;11.022;2024-03-02T09:38:44;12.30;;;9.13;;
9761;SDS011;4920;49.594;11.022;2024-03-02T09:41:15;12.82;;;8.73;;
9761;SDS011;4920;49.594;11.022;2024-03-02T09:43:44;11.98;;;8.30;;
9761;SDS011;4920;49.594;11.022;2024-03-02T09:46:14;11.18;;;8.23;;
9761;SDS011;4920;49.594;11.022;2024-03-02T09:48:44;11.02;;;8.82;;
9761;SDS011;4920;49.594;11.022;2024-03-02T09:51:13;10.32;;;7.85;;
9761;SDS011;4920;49.594;11.022;2024-03-02T09:53:46;11.25;;;7.95;;
9761;SDS011;4920;49.594;11.022;2024-03-02T09:56:18;10.07;;;7.07;;
9761;SDS011;4920;49.594;11.022;2024-03-02T09:58:47;9.73;;;7.13;;
9761;SDS011;4920;49.594;11.022;2024-03-02T10:01:16;8.73;;;6.53;;
9761;SDS011;4920;49.594;11.022;2024-03-02T10:03:45;9.82;;;7.28;;
9761;SDS011;4920;49.594;11.022;2024-03-02T10:06:20;11.63;;;7.32;;
9761;SDS011;4920;49.594;11.022;2024-03-02T10:08:50;9.38;;;6.95;;
9761;SDS011;4920;49.594;11.022;2024-03-02T10:11:28;8.02;;;6.80;;
9761;SDS011;4920;49.594;11.022;2024-03-02T10:14:05;9.40;;;6.88;;
9761;SDS011;4920;49.594;11.022;2024-03-02T10:16:35;10.30;;;6.90;;
9761;SDS011;4920;49.594;11.022;2024-03-02T10:19:15;9.13;;;7.03;;
9761;SDS011;4920;49.594;11.022;2024-03-02T10:21:45;8.23;;;6.68;;
9761;SDS011;4920;49.594;11.022;2024-03-02T10:24:14;9.45;;;6.28;;
9761;SDS011;4920;49.594;11.022;2024-03-02T10:26:45;8.63;;;6.75;;
9761;SDS011;4920;49.594;11.022;2024-03-02T10:29:14;7.18;;;6.20;;
9761;SDS011;4920;49.594;11.022;2024-03-02T10:31:43;9.23;;;6.53;;
9761;SDS011;4920;49.594;11.022;2024-03-02T10:34:14;8.10;;;6.68;;
9761;SDS011;4920;49.594;11.022;2024-03-02T10:36:43;8.57;;;6.78;;
9761;SDS011;4920;49.594;11.022;2024-03-02T10:39:14;7.93;;;6.50;;
9761;SDS011;4920;49.594;11.022;2024-03-02T10:41:44;9.07;;;6.93;;
9761;SDS011;4920;49.594;11.022;2024-03-02T10:44:17;9.23;;;6.90;;
9761;SDS011;4920;49.594;11.022;2024-03-02T10:46:47;9.32;;;6.82;;
9761;SDS011;4920;49.594;11.022;2024-03-02T10:49:17;9.63;;;7.38;;
9761;SDS011;4920;49.594;11.022;2024-03-02T10:51:47;7.80;;;6.70;;
9761;SDS011;4920;49.594;11.022;2024-03-02T10:54:16;9.63;;;7.55;;
9761;SDS011;4920;49.594;11.022;2024-03-02T10:56:54;8.60;;;7.18;;
9761;SDS011;4920;49.594;11.022;2024-03-02T10:59:27;8.02;;;7.20;;
9761;SDS011;4920;49.594;11.022;2024-03-02T11:01:59;7.97;;;7.00;;
9761;SDS011;4920;49.594;11.022;2024-03-02T11:04:32;8.57;;;7.63;;
9761;SDS011;4920;49.594;11.022;2024-03-02T11:07:03;9.35;;;7.40;;
9761;SDS011;4920;49.594;11.022;2024-03-02T11:09:35;10.15;;;8.02;;
9761;SDS011;4920;49.594;11.022;2024-03-02T11:12:09;9.70;;;7.20;;
9761;SDS011;4920;49.594;11.022;2024-03-02T11:14:45;10.60;;;7.10;;
9761;SDS011;4920;49.594;11.022;2024-03-02T11:17:14;7.97;;;6.63;;
9761;SDS011;4920;49.594;11.022;2024-03-02T11:19:45;7.65;;;6.80;;
9761;SDS011;4920;49.594;11.022;2024-03-02T11:22:15;7.80;;;6.88;;
9761;SDS011;4920;49.594;11.022;2024-03-02T11:24:48;7.82;;;7.03;;
9761;SDS011;4920;49.594;11.022;2024-03-02T11:33:24;9.93;;;7.45;;
9761;SDS011;4920;49.594;11.022;2024-03-02T11:35:57;9.70;;;7.97;;
9761;SDS011;4920;49.594;11.022;2024-03-02T11:38:30;10.02;;;7.72;;
9761;SDS011;4920;49.594;11.022;2024-03-02T11:41:00;11.32;;;7.93;;
9761;SDS011;4920;49.594;11.022;2024-03-02T11:43:31;10.20;;;7.95;;
9761;SDS011;4920;49.594;11.022;2024-03-02T11:46:03;8.90;;;8.00;;
9761;SDS011;4920;49.594;11.022;2024-03-02T11:48:35;10.15;;;8.18;;
9761;SDS011;4920;49.594;11.022;2024-03-02T11:51:05;13.00;;;9.50;;
9761;SDS011;4920;49.594;11.022;2024-03-02T11:53:33;11.90;;;8.63;;
9761;SDS011;4920;49.594;11.022;2024-03-02T11:56:06;9.18;;;8.18;;
9761;SDS011;4920;49.594;11.022;2024-03-02T11:58:36;10.02;;;8.35;;
9761;SDS011;4920;49.594;11.022;2024-03-02T12:01:10;9.35;;;7.68;;
9761;SDS011;4920;49.594;11.022;2024-03-02T12:03:40;9.68;;;8.57;;
9761;SDS011;4920;49.594;11.022;2024-03-02T12:06:09;10.43;;;8.57;;
9761;SDS011;4920;49.594;11.022;2024-03-02T12:08:40;11.23;;;9.50;;
9761;SDS011;4920;49.594;11.022;2024-03-02T12:11:12;10.27;;;8.80;;
9761;SDS011;4920;49.594;11.022;2024-03-02T12:13:51;10.90;;;8.35;;
9761;SDS011;4920;49.594;11.022;2024-03-02T12:16:26;10.40;;;8.10;;
9761;SDS011;4920;49.594;11.022;2024-03-02T12:18:55;11.30;;;8.40;;
9761;SDS011;4920;49.594;11.022;2024-03-02T12:21:24;8.45;;;6.90;;
9761;SDS011;4920;49.594;11.022;2024-03-02T12:23:53;7.88;;;6.70;;
9761;SDS011;4920;49.594;11.022;2024-03-02T12:26:22;8.13;;;6.43;;
9761;SDS011;4920;49.594;11.022;2024-03-02T12:28:51;7.75;;;6.82;;
9761;SDS011;4920;49.594;11.022;2024-03-02T12:31:21;9.13;;;7.60;;
9761;SDS011;4920;49.594;11.022;2024-03-02T12:33:51;8.93;;;7.45;;
9761;SDS011;4920;49.594;11.022;2024-03-02T12:36:20;8.77;;;7.20;;
9761;SDS011;4920;49.594;11.022;2024-03-02T12:38:52;8.65;;;7.50;;
9761;SDS011;4920;49.594;11.022;2024-03-02T12:41:21;8.93;;;7.07;;
9761;SDS011;4920;49.594;11.022;2024-03-02T12:43:51;9.43;;;7.35;;
9761;SDS011;4920;49.594;11.022;2024-03-02T12:46:21;8.93;;;7.93;;
9761;SDS011;4920;49.594;11.022;2024-03-02T12:48:51;10.07;;;8.05;;
9761;SDS011;4920;49.594;11.022;2024-03-02T12:51:20;9.88;;;7.90;;
9761;SDS011;4920;49.594;11.022;2024-03-02T12:53:52;11.70;;;9.25;;
9761;SDS011;4920;49.594;11.022;2024-03-02T12:56:22;10.70;;;8.68;;
9761;SDS011;4920;49.594;11.022;2024-03-02T12:58:53;11.82;;;8.85;;
9761;SDS011;4920;49.594;11.022;2024-03-02T13:01:22;13.30;;;8.88;;
9761;SDS011;4920;49.594;11.022;2024-03-02T13:03:53;12.02;;;10.00;;
9761;SDS011;4920;49.594;11.022;2024-03-02T13:06:24;12.77;;;10.10;;
9761;SDS011;4920;49.594;11.022;2024-03-02T13:08:55;12.60;;;9.93;;
9761;SDS011;4920;49.594;11.022;2024-03-02T13:11:24;12.77;;;10.15;;
9761;SDS011;4920;49.594;11.022;2024-03-02T13:13:53;12.23;;;9.63;;
9761;SDS011;4920;49.594;11.022;2024-03-02T13:16:22;14.30;;;10.30;;
9761;SDS011;4920;49.594;11.022;2024-03-02T13:19:00;15.43;;;10.68;;
9761;SDS011;4920;49.594;11.022;2024-03-02T13:21:29;15.75;;;10.65;;
9761;SDS011;4920;49.594;11.022;2024-03-02T13:23:58;14.88;;;11.32;;
9761;SDS011;4920;49.594;11.022;2024-03-02T13:26:28;13.90;;;11.40;;
9761;SDS011;4920;49.594;11.022;2024-03-02T13:28:57;15.23;;;10.88;;
9761;SDS011;4920;49.594;11.022;2024-03-02T13:31:26;15.02;;;10.35;;
9761;SDS011;4920;49.594;11.022;2024-03-02T13:33:55;13.98;;;10.60;;
9761;SDS011;4920;49.594;11.022;2024-03-02T13:36:26;14.85;;;11.02;;
9761;SDS011;4920;49.594;11.022;2024-03-02T13:38:55;15.25;;;10.93;;
9761;SDS011;4920;49.594;11.022;2024-03-02T13:41:25;15.32;;;11.68;;
9761;SDS011;4920;49.594;11.022;2024-03-02T13:43:54;13.98;;;11.05;;
9761;SDS011;4920;49.594;11.022;2024-03-02T13:46:23;14.73;;;11.45;;
9761;SDS011;4920;49.594;11.022;2024-03-02T13:48:51;14.48;;;10.95;;
9761;SDS011;4920;49.594;11.022;2024-03-02T13:51:23;15.80;;;10.15;;
9761;SDS011;4920;49.594;11.022;2024-03-02T13:53:55;15.57;;;10.52;;
9761;SDS011;4920;49.594;11.022;2024-03-02T13:56:24;14.60;;;10.65;;
9761;SDS011;4920;49.594;11.022;2024-03-02T13:58:53;15.18;;;10.00;;
9761;SDS011;4920;49.594;11.022;2024-03-02T14:01:22;11.15;;;9.10;;
9761;SDS011;4920;49.594;11.022;2024-03-02T14:03:51;12.27;;;8.90;;
9761;SDS011;4920;49.594;11.022;2024-03-02T14:06:21;10.90;;;8.63;;
9761;SDS011;4920;49.594;11.022;2024-03-02T14:08:51;12.80;;;9.13;;
9761;SDS011;4920;49.594;11.022;2024-03-02T14:11:22;11.38;;;8.93;;
9761;SDS011;4920;49.594;11.022;2024-03-02T14:13:51;10.80;;;8.40;;
9761;SDS011;4920;49.594;11.022;2024-03-02T14:16:21;10.60;;;8.18;;
9761;SDS011;4920;49.594;11.022;2024-03-02T14:18:50;10.90;;;7.85;;
9761;SDS011;4920;49.594;11.022;2024-03-02T14:21:19;12.15;;;8.60;;
9761;SDS011;4920;49.594;11.022;2024-03-02T14:23:48;11.13;;;8.38;;
9761;SDS011;4920;49.594;11.022;2024-03-02T14:26:17;12.57;;;8.68;;
9761;SDS011;4920;49.594;11.022;2024-03-02T14:28:47;13.32;;;8.00;;
9761;SDS011;4920;49.594;11.022;2024-03-02T14:31:19;10.65;;;7.85;;
9761;SDS011;4920;49.594;11.022;2024-03-02T14:33:48;12.05;;;8.88;;
9761;SDS011;4920;49.594;11.022;2024-03-02T14:36:18;11.75;;;8.50;;
9761;SDS011;4920;49.594;11.022;2024-03-02T14:38:47;11.55;;;8.75;;
9761;SDS011;4920;49.594;11.022;2024-03-02T14:41:16;13.18;;;8.95;;
9761;SDS011;4920;49.594;11.022;2024-03-02T14:43:45;13.10;;;10.77;;
9761;SDS011;4920;49.594;11.022;2024-03-02T14:46:16;14.45;;;10.77;;
9761;SDS011;4920;49.594;11.022;2024-03-02T14:48:46;16.58;;;11.90;;
9761;SDS011;4920;49.594;11.022;2024-03-02T14:51:15;16.50;;;11.65;;
9761;SDS011;4920;49.594;11.022;2024-03-02T14:53:44;14.55;;;11.50;;
9761;SDS011;4920;49.594;11.022;2024-03-02T14:56:13;16.85;;;11.77;;
9761;SDS011;4920;49.594;11.022;2024-03-02T14:58:42;15.55;;;11.75;;
9761;SDS011;4920;49.594;11.022;2024-03-02T15:01:14;17.98;;;12.05;;
9761;SDS011;4920;49.594;11.022;2024-03-02T15:03:44;18.17;;;12.80;;